Millinocket, ME

5:25 AM EDT on July 31, 2014 (GMT -0400)
Greenville (KGNR) Elev 1401 ft | 45.46 °N, 69.60 °W | Change Station

Current weather conditions updated 29 minutes ago

Partly Cloudy
Partly Cloudy
52 °F
Feels Like 52 °F
N
0
Wind Variable Wind from North
Gusts 9 mph

Today is forecast to be Much Warmer than yesterday.

Today
High -- | Low -- °F
--% Chance of Precip.
Yesterday
High -- | Low -- °F
Precip. -- in
5:17 AM 8:04 PM
Waxing Crescent, 17% visible
Pressure 30.05 in
Visibility -9999.0 miles
Clouds
Dew Point 50 °F
Humidity 93%
Rainfall 0.00 in
Snow Depth Not available.
UV Not available.
Pollen 4.80 out of 12
PM2.5 Good
Flu Activity Not available.
METAR KGNR 310856Z AUTO 00000KT 11/10 A3004 RMK AO1 SLP176 T01110100 53002

More Conditions Fewer Conditions

Pressure 30.05 in
Visibility -9999.0 miles
Clouds
Dew Point 50 °F
Humidity 93%
Rainfall 0.00 in
Snow Depth Not available.
UV Not available.
Pollen 4.80 out of 12
PM2.5 Good
Flu Activity Not available.
METAR KGNR 310856Z AUTO 00000KT 11/10 A3004 RMK AO1 SLP176 T01110100 53002

More Conditions Fewer Conditions

10-Day Weather Forecast

Almanac

Astronomy

Jul. 31, 2014 Rise Set
Actual Time 5:17 AM EDT 8:04 PM EDT
Civil Twilight 4:42 AM EDT 8:38 PM EDT
Nautical Twilight 3:58 AM EDT 9:22 PM EDT
Astronomical Twilight 3:07 AM EDT 10:13 PM EDT
Moon 9:57 AM EDT 9:58 PM EDT
Length of Visible Light 15h 56m
Length of Day
14h 47m
Tomorrow will be 2m 27s shorter.
Waxing Crescent, 17% of the Moon is Illuminated
Today
Waxing Crescent
Aug 3
First Quarter
Aug 10
Full
Aug 17
Last Quarter
Aug 25
New

Today's Extremes

State Highs State Lows

Community

WunderPhotos

Upload Photos

1,739,284 photos uploaded!

Nearby

Air Quality

  Air Quality AQ Index Pollutant
Yesterday Good
PM2.5
Yesterday Good
OZONE
Current Good
PM2.5
Thursday Good
OZONE
Thursday Good
PM2.5
Friday Good
OZONE
Friday Good
PM2.5
Saturday Good
OZONE
Saturday Good
PM2.5

Snow Depth

Station Depth Elevation
No new snow has been reported.

Earthquake Activity

City Distance Mag. Time & Date
No recent earthquake activity has been reported nearby.
Minimum magnitude displayed is 2.5.

Coastal Water Temperatures

Place Temperature
No Stations Reporting

Nearby Weather Stations

Station Location Temp. Dew Point Humidity Wind Precip. Elev Updated Type
APRSWXNET Millinocket ME , Millinocket, ME 55 °F 55 °F 99% SSW  at  1 mph 0.00 in / hr 475 ft 4:46 AM EDT MADIS

Show More Stations Show Fewer Stations